sensor_id;sensor_type;location;lat;lon;timestamp;P1;durP1;ratioP1;P2;durP2;ratioP2
6133;SDS011;3098;42.678;23.364;2024-01-30T00:00:51;6.37;;;3.70;;
6133;SDS011;3098;42.678;23.364;2024-01-30T00:03:19;8.93;;;4.63;;
6133;SDS011;3098;42.678;23.364;2024-01-30T00:05:49;6.20;;;3.33;;
6133;SDS011;3098;42.678;23.364;2024-01-30T00:08:17;9.20;;;4.40;;
6133;SDS011;3098;42.678;23.364;2024-01-30T00:10:46;13.37;;;4.33;;
6133;SDS011;3098;42.678;23.364;2024-01-30T00:13:14;8.33;;;3.67;;
6133;SDS011;3098;42.678;23.364;2024-01-30T00:15:45;7.23;;;3.93;;
6133;SDS011;3098;42.678;23.364;2024-01-30T00:18:14;9.03;;;3.90;;
6133;SDS011;3098;42.678;23.364;2024-01-30T00:20:42;7.00;;;3.20;;
6133;SDS011;3098;42.678;23.364;2024-01-30T00:23:11;6.90;;;3.70;;
6133;SDS011;3098;42.678;23.364;2024-01-30T00:25:39;7.43;;;4.07;;
6133;SDS011;3098;42.678;23.364;2024-01-30T00:28:06;7.63;;;3.97;;
6133;SDS011;3098;42.678;23.364;2024-01-30T00:30:34;7.60;;;3.90;;
6133;SDS011;3098;42.678;23.364;2024-01-30T00:33:02;6.90;;;3.87;;
6133;SDS011;3098;42.678;23.364;2024-01-30T00:35:31;8.17;;;4.63;;
6133;SDS011;3098;42.678;23.364;2024-01-30T00:37:59;11.87;;;4.53;;
6133;SDS011;3098;42.678;23.364;2024-01-30T00:40:29;8.43;;;4.10;;
6133;SDS011;3098;42.678;23.364;2024-01-30T00:42:57;14.83;;;4.33;;
6133;SDS011;3098;42.678;23.364;2024-01-30T00:45:24;9.43;;;4.40;;
6133;SDS011;3098;42.678;23.364;2024-01-30T00:47:52;9.67;;;4.50;;
6133;SDS011;3098;42.678;23.364;2024-01-30T00:50:20;9.33;;;3.77;;
6133;SDS011;3098;42.678;23.364;2024-01-30T00:52:47;7.07;;;3.67;;
6133;SDS011;3098;42.678;23.364;2024-01-30T00:55:15;13.73;;;3.97;;
6133;SDS011;3098;42.678;23.364;2024-01-30T00:57:45;8.00;;;3.93;;
6133;SDS011;3098;42.678;23.364;2024-01-30T01:00:13;7.27;;;3.30;;
6133;SDS011;3098;42.678;23.364;2024-01-30T01:02:42;10.43;;;4.20;;
6133;SDS011;3098;42.678;23.364;2024-01-30T01:05:10;11.13;;;4.20;;
6133;SDS011;3098;42.678;23.364;2024-01-30T01:07:37;9.23;;;4.63;;
6133;SDS011;3098;42.678;23.364;2024-01-30T01:10:05;9.37;;;4.07;;
6133;SDS011;3098;42.678;23.364;2024-01-30T01:12:36;8.60;;;4.00;;
6133;SDS011;3098;42.678;23.364;2024-01-30T01:15:09;9.50;;;4.87;;
6133;SDS011;3098;42.678;23.364;2024-01-30T01:17:37;9.03;;;4.37;;
6133;SDS011;3098;42.678;23.364;2024-01-30T01:20:06;8.53;;;4.27;;
6133;SDS011;3098;42.678;23.364;2024-01-30T01:22:37;12.47;;;4.17;;
6133;SDS011;3098;42.678;23.364;2024-01-30T01:25:06;9.23;;;4.00;;
6133;SDS011;3098;42.678;23.364;2024-01-30T01:27:35;8.73;;;4.40;;
6133;SDS011;3098;42.678;23.364;2024-01-30T01:30:09;9.20;;;4.57;;
6133;SDS011;3098;42.678;23.364;2024-01-30T01:32:39;9.43;;;4.43;;
6133;SDS011;3098;42.678;23.364;2024-01-30T01:35:14;10.70;;;3.67;;
6133;SDS011;3098;42.678;23.364;2024-01-30T01:37:42;10.73;;;4.03;;
6133;SDS011;3098;42.678;23.364;2024-01-30T01:40:10;10.67;;;4.00;;
6133;SDS011;3098;42.678;23.364;2024-01-30T01:42:38;9.33;;;4.23;;
6133;SDS011;3098;42.678;23.364;2024-01-30T01:45:10;8.53;;;3.87;;
6133;SDS011;3098;42.678;23.364;2024-01-30T01:47:39;8.60;;;3.30;;
6133;SDS011;3098;42.678;23.364;2024-01-30T01:50:07;8.50;;;4.03;;
6133;SDS011;3098;42.678;23.364;2024-01-30T01:52:35;9.93;;;3.77;;
6133;SDS011;3098;42.678;23.364;2024-01-30T01:55:05;7.03;;;3.40;;
6133;SDS011;3098;42.678;23.364;2024-01-30T01:57:34;8.27;;;3.23;;
6133;SDS011;3098;42.678;23.364;2024-01-30T02:00:01;7.97;;;3.70;;
6133;SDS011;3098;42.678;23.364;2024-01-30T02:02:31;11.20;;;4.10;;
6133;SDS011;3098;42.678;23.364;2024-01-30T02:05:03;7.40;;;3.50;;
6133;SDS011;3098;42.678;23.364;2024-01-30T02:07:31;7.80;;;4.10;;
6133;SDS011;3098;42.678;23.364;2024-01-30T02:09:59;7.57;;;3.83;;
6133;SDS011;3098;42.678;23.364;2024-01-30T02:12:28;6.43;;;3.30;;
6133;SDS011;3098;42.678;23.364;2024-01-30T02:14:56;7.37;;;3.50;;
6133;SDS011;3098;42.678;23.364;2024-01-30T02:17:25;8.60;;;3.73;;
6133;SDS011;3098;42.678;23.364;2024-01-30T02:19:55;9.63;;;3.87;;
6133;SDS011;3098;42.678;23.364;2024-01-30T02:22:25;8.23;;;3.33;;
6133;SDS011;3098;42.678;23.364;2024-01-30T02:24:52;8.47;;;3.93;;
6133;SDS011;3098;42.678;23.364;2024-01-30T02:27:20;8.27;;;4.30;;
6133;SDS011;3098;42.678;23.364;2024-01-30T02:29:47;7.47;;;3.50;;
6133;SDS011;3098;42.678;23.364;2024-01-30T02:32:15;9.73;;;4.33;;
6133;SDS011;3098;42.678;23.364;2024-01-30T02:34:43;11.57;;;3.73;;
6133;SDS011;3098;42.678;23.364;2024-01-30T02:37:11;8.23;;;3.77;;
6133;SDS011;3098;42.678;23.364;2024-01-30T02:39:41;6.47;;;3.40;;
6133;SDS011;3098;42.678;23.364;2024-01-30T02:42:08;7.50;;;3.63;;
6133;SDS011;3098;42.678;23.364;2024-01-30T02:44:36;9.67;;;3.70;;
6133;SDS011;3098;42.678;23.364;2024-01-30T02:47:04;8.57;;;3.40;;
6133;SDS011;3098;42.678;23.364;2024-01-30T02:49:32;9.20;;;4.07;;
6133;SDS011;3098;42.678;23.364;2024-01-30T02:52:00;7.13;;;3.67;;
6133;SDS011;3098;42.678;23.364;2024-01-30T02:54:27;7.50;;;3.73;;
6133;SDS011;3098;42.678;23.364;2024-01-30T02:56:57;6.57;;;3.43;;
6133;SDS011;3098;42.678;23.364;2024-01-30T02:59:26;5.97;;;3.03;;
6133;SDS011;3098;42.678;23.364;2024-01-30T03:01:55;9.90;;;4.10;;
6133;SDS011;3098;42.678;23.364;2024-01-30T03:04:23;7.50;;;3.73;;
6133;SDS011;3098;42.678;23.364;2024-01-30T03:06:50;7.17;;;3.77;;
6133;SDS011;3098;42.678;23.364;2024-01-30T03:09:19;9.17;;;4.37;;
6133;SDS011;3098;42.678;23.364;2024-01-30T03:11:47;6.97;;;3.23;;
6133;SDS011;3098;42.678;23.364;2024-01-30T03:14:16;7.03;;;3.57;;
6133;SDS011;3098;42.678;23.364;2024-01-30T03:16:43;8.80;;;3.53;;
6133;SDS011;3098;42.678;23.364;2024-01-30T03:19:11;8.50;;;3.97;;
6133;SDS011;3098;42.678;23.364;2024-01-30T03:21:39;9.80;;;4.40;;
6133;SDS011;3098;42.678;23.364;2024-01-30T03:24:07;10.07;;;3.77;;
6133;SDS011;3098;42.678;23.364;2024-01-30T03:26:35;8.60;;;3.60;;
6133;SDS011;3098;42.678;23.364;2024-01-30T03:29:03;8.93;;;3.97;;
6133;SDS011;3098;42.678;23.364;2024-01-30T03:31:33;12.00;;;3.73;;
6133;SDS011;3098;42.678;23.364;2024-01-30T03:34:02;7.63;;;4.00;;
6133;SDS011;3098;42.678;23.364;2024-01-30T03:36:30;6.87;;;3.40;;
6133;SDS011;3098;42.678;23.364;2024-01-30T03:38:59;9.57;;;3.80;;
6133;SDS011;3098;42.678;23.364;2024-01-30T03:41:27;10.27;;;4.30;;
6133;SDS011;3098;42.678;23.364;2024-01-30T03:43:54;8.17;;;3.60;;
6133;SDS011;3098;42.678;23.364;2024-01-30T03:46:22;7.67;;;3.60;;
6133;SDS011;3098;42.678;23.364;2024-01-30T03:48:51;7.87;;;3.97;;
6133;SDS011;3098;42.678;23.364;2024-01-30T03:51:18;11.33;;;4.40;;
6133;SDS011;3098;42.678;23.364;2024-01-30T03:53:46;11.20;;;3.93;;
6133;SDS011;3098;42.678;23.364;2024-01-30T03:56:13;9.33;;;3.60;;
6133;SDS011;3098;42.678;23.364;2024-01-30T03:58:41;8.03;;;3.07;;
6133;SDS011;3098;42.678;23.364;2024-01-30T04:01:12;7.10;;;3.03;;
6133;SDS011;3098;42.678;23.364;2024-01-30T04:03:43;9.60;;;3.70;;
6133;SDS011;3098;42.678;23.364;2024-01-30T04:06:13;6.40;;;3.30;;
6133;SDS011;3098;42.678;23.364;2024-01-30T04:08:41;6.20;;;2.60;;
6133;SDS011;3098;42.678;23.364;2024-01-30T04:11:09;7.07;;;3.27;;
6133;SDS011;3098;42.678;23.364;2024-01-30T04:13:37;6.87;;;3.20;;
6133;SDS011;3098;42.678;23.364;2024-01-30T04:16:05;6.17;;;3.40;;
6133;SDS011;3098;42.678;23.364;2024-01-30T04:18:33;9.40;;;3.87;;
6133;SDS011;3098;42.678;23.364;2024-01-30T04:21:00;7.87;;;3.60;;
6133;SDS011;3098;42.678;23.364;2024-01-30T04:23:31;9.10;;;3.80;;
6133;SDS011;3098;42.678;23.364;2024-01-30T04:25:58;8.57;;;3.37;;
6133;SDS011;3098;42.678;23.364;2024-01-30T04:28:26;10.97;;;4.33;;
6133;SDS011;3098;42.678;23.364;2024-01-30T04:30:54;9.00;;;3.83;;
6133;SDS011;3098;42.678;23.364;2024-01-30T04:33:21;9.97;;;3.47;;
6133;SDS011;3098;42.678;23.364;2024-01-30T04:35:54;7.10;;;3.20;;
6133;SDS011;3098;42.678;23.364;2024-01-30T04:38:24;8.07;;;3.70;;
6133;SDS011;3098;42.678;23.364;2024-01-30T04:40:53;12.47;;;3.93;;
6133;SDS011;3098;42.678;23.364;2024-01-30T04:43:21;11.60;;;3.27;;
6133;SDS011;3098;42.678;23.364;2024-01-30T04:45:56;20.23;;;4.33;;
6133;SDS011;3098;42.678;23.364;2024-01-30T04:48:23;12.63;;;3.30;;
6133;SDS011;3098;42.678;23.364;2024-01-30T04:50:52;7.40;;;3.53;;
6133;SDS011;3098;42.678;23.364;2024-01-30T04:53:21;7.10;;;3.67;;
6133;SDS011;3098;42.678;23.364;2024-01-30T04:55:49;10.07;;;4.33;;
6133;SDS011;3098;42.678;23.364;2024-01-30T04:58:23;8.37;;;3.90;;
6133;SDS011;3098;42.678;23.364;2024-01-30T05:00:51;9.93;;;3.67;;
6133;SDS011;3098;42.678;23.364;2024-01-30T05:03:21;7.33;;;2.90;;
6133;SDS011;3098;42.678;23.364;2024-01-30T05:05:51;7.90;;;2.93;;
6133;SDS011;3098;42.678;23.364;2024-01-30T05:08:19;5.20;;;3.03;;
6133;SDS011;3098;42.678;23.364;2024-01-30T05:10:47;7.87;;;3.30;;
6133;SDS011;3098;42.678;23.364;2024-01-30T05:13:15;4.13;;;2.47;;
6133;SDS011;3098;42.678;23.364;2024-01-30T05:15:44;16.37;;;3.50;;
6133;SDS011;3098;42.678;23.364;2024-01-30T05:18:14;7.27;;;3.63;;
6133;SDS011;3098;42.678;23.364;2024-01-30T05:20:42;7.33;;;3.67;;
6133;SDS011;3098;42.678;23.364;2024-01-30T05:23:11;19.37;;;7.47;;
6133;SDS011;3098;42.678;23.364;2024-01-30T05:25:39;12.23;;;4.37;;
6133;SDS011;3098;42.678;23.364;2024-01-30T05:28:08;14.07;;;4.47;;
6133;SDS011;3098;42.678;23.364;2024-01-30T05:30:38;8.07;;;3.83;;
6133;SDS011;3098;42.678;23.364;2024-01-30T05:33:11;10.93;;;4.57;;
6133;SDS011;3098;42.678;23.364;2024-01-30T05:35:39;12.47;;;4.47;;
6133;SDS011;3098;42.678;23.364;2024-01-30T05:38:09;10.53;;;5.30;;
6133;SDS011;3098;42.678;23.364;2024-01-30T05:40:39;11.77;;;4.23;;
6133;SDS011;3098;42.678;23.364;2024-01-30T05:43:07;12.53;;;4.37;;
6133;SDS011;3098;42.678;23.364;2024-01-30T05:45:35;10.37;;;3.70;;
6133;SDS011;3098;42.678;23.364;2024-01-30T05:48:10;16.03;;;3.90;;
6133;SDS011;3098;42.678;23.364;2024-01-30T05:50:40;12.43;;;4.37;;
6133;SDS011;3098;42.678;23.364;2024-01-30T05:53:08;9.53;;;4.13;;
6133;SDS011;3098;42.678;23.364;2024-01-30T05:55:37;8.67;;;4.17;;
6133;SDS011;3098;42.678;23.364;2024-01-30T05:58:08;13.20;;;3.87;;
6133;SDS011;3098;42.678;23.364;2024-01-30T06:00:47;9.23;;;3.97;;
6133;SDS011;3098;42.678;23.364;2024-01-30T06:08:52;9.43;;;3.60;;
6133;SDS011;3098;42.678;23.364;2024-01-30T06:11:38;10.13;;;4.20;;
6133;SDS011;3098;42.678;23.364;2024-01-30T06:14:43;16.53;;;6.80;;
6133;SDS011;3098;42.678;23.364;2024-01-30T06:17:24;8.77;;;3.70;;
6133;SDS011;3098;42.678;23.364;2024-01-30T06:20:01;29.10;;;4.97;;
6133;SDS011;3098;42.678;23.364;2024-01-30T06:22:29;30.73;;;9.80;;
6133;SDS011;3098;42.678;23.364;2024-01-30T06:24:59;13.37;;;6.00;;
6133;SDS011;3098;42.678;23.364;2024-01-30T06:27:27;18.77;;;6.77;;
6133;SDS011;3098;42.678;23.364;2024-01-30T06:29:56;26.15;;;6.78;;
6133;SDS011;3098;42.678;23.364;2024-01-30T06:32:27;12.40;;;4.50;;
6133;SDS011;3098;42.678;23.364;2024-01-30T06:34:59;14.23;;;6.37;;
6133;SDS011;3098;42.678;23.364;2024-01-30T06:37:28;20.85;;;6.40;;
6133;SDS011;3098;42.678;23.364;2024-01-30T06:40:00;17.67;;;5.93;;
6133;SDS011;3098;42.678;23.364;2024-01-30T06:42:30;13.38;;;6.15;;
6133;SDS011;3098;42.678;23.364;2024-01-30T06:45:03;13.05;;;5.63;;
6133;SDS011;3098;42.678;23.364;2024-01-30T06:47:34;16.80;;;6.68;;
6133;SDS011;3098;42.678;23.364;2024-01-30T06:50:01;15.45;;;6.40;;
6133;SDS011;3098;42.678;23.364;2024-01-30T06:52:29;11.13;;;5.53;;
6133;SDS011;3098;42.678;23.364;2024-01-30T06:54:57;12.82;;;5.43;;
6133;SDS011;3098;42.678;23.364;2024-01-30T06:57:27;34.05;;;6.20;;
6133;SDS011;3098;42.678;23.364;2024-01-30T06:59:55;12.00;;;5.10;;
6133;SDS011;3098;42.678;23.364;2024-01-30T07:02:24;16.27;;;5.05;;
6133;SDS011;3098;42.678;23.364;2024-01-30T07:04:53;9.90;;;4.78;;
6133;SDS011;3098;42.678;23.364;2024-01-30T07:07:26;9.35;;;4.65;;
6133;SDS011;3098;42.678;23.364;2024-01-30T07:09:56;7.47;;;4.57;;
6133;SDS011;3098;42.678;23.364;2024-01-30T07:12:33;11.02;;;4.53;;
6133;SDS011;3098;42.678;23.364;2024-01-30T07:15:05;11.63;;;4.38;;
6133;SDS011;3098;42.678;23.364;2024-01-30T07:17:35;6.25;;;3.75;;
6133;SDS011;3098;42.678;23.364;2024-01-30T07:20:04;8.65;;;4.15;;
6133;SDS011;3098;42.678;23.364;2024-01-30T07:22:36;14.27;;;4.20;;
6133;SDS011;3098;42.678;23.364;2024-01-30T07:25:10;7.68;;;3.80;;
6133;SDS011;3098;42.678;23.364;2024-01-30T07:27:45;4.15;;;2.53;;
6133;SDS011;3098;42.678;23.364;2024-01-30T07:30:17;9.82;;;2.75;;
6133;SDS011;3098;42.678;23.364;2024-01-30T07:32:47;5.03;;;2.75;;
6133;SDS011;3098;42.678;23.364;2024-01-30T07:35:18;5.97;;;3.05;;
6133;SDS011;3098;42.678;23.364;2024-01-30T07:37:50;6.57;;;2.92;;
6133;SDS011;3098;42.678;23.364;2024-01-30T07:40:20;5.40;;;2.28;;
6133;SDS011;3098;42.678;23.364;2024-01-30T07:42:55;5.60;;;2.88;;
6133;SDS011;3098;42.678;23.364;2024-01-30T07:45:26;7.63;;;2.63;;
6133;SDS011;3098;42.678;23.364;2024-01-30T07:47:57;5.10;;;2.88;;
6133;SDS011;3098;42.678;23.364;2024-01-30T07:50:26;6.20;;;2.88;;
6133;SDS011;3098;42.678;23.364;2024-01-30T07:52:55;7.13;;;3.10;;
6133;SDS011;3098;42.678;23.364;2024-01-30T07:55:25;5.50;;;2.80;;
6133;SDS011;3098;42.678;23.364;2024-01-30T07:57:55;4.65;;;2.97;;
6133;SDS011;3098;42.678;23.364;2024-01-30T08:00:25;4.68;;;2.63;;
6133;SDS011;3098;42.678;23.364;2024-01-30T08:02:54;8.27;;;2.83;;
6133;SDS011;3098;42.678;23.364;2024-01-30T08:05:29;4.50;;;2.85;;
6133;SDS011;3098;42.678;23.364;2024-01-30T08:08:01;9.48;;;2.80;;
6133;SDS011;3098;42.678;23.364;2024-01-30T08:10:29;5.32;;;3.20;;
6133;SDS011;3098;42.678;23.364;2024-01-30T08:13:01;3.97;;;2.80;;
6133;SDS011;3098;42.678;23.364;2024-01-30T08:15:29;7.95;;;3.80;;
6133;SDS011;3098;42.678;23.364;2024-01-30T08:17:56;7.78;;;3.53;;
6133;SDS011;3098;42.678;23.364;2024-01-30T08:20:25;4.47;;;2.90;;
6133;SDS011;3098;42.678;23.364;2024-01-30T08:22:56;5.72;;;3.00;;
6133;SDS011;3098;42.678;23.364;2024-01-30T08:25:25;3.92;;;2.92;;
6133;SDS011;3098;42.678;23.364;2024-01-30T08:27:53;4.80;;;3.08;;
6133;SDS011;3098;42.678;23.364;2024-01-30T08:30:28;7.90;;;2.63;;
6133;SDS011;3098;42.678;23.364;2024-01-30T08:32:57;6.47;;;3.08;;
6133;SDS011;3098;42.678;23.364;2024-01-30T08:35:31;5.40;;;2.92;;
6133;SDS011;3098;42.678;23.364;2024-01-30T08:38:03;6.13;;;2.97;;
6133;SDS011;3098;42.678;23.364;2024-01-30T08:40:31;7.13;;;3.10;;
6133;SDS011;3098;42.678;23.364;2024-01-30T08:42:59;5.57;;;3.58;;
6133;SDS011;3098;42.678;23.364;2024-01-30T08:45:40;5.60;;;3.42;;
6133;SDS011;3098;42.678;23.364;2024-01-30T08:48:21;9.40;;;4.03;;
6133;SDS011;3098;42.678;23.364;2024-01-30T08:50:54;12.13;;;4.15;;
6133;SDS011;3098;42.678;23.364;2024-01-30T08:53:35;12.00;;;5.57;;
6133;SDS011;3098;42.678;23.364;2024-01-30T08:56:10;9.82;;;4.40;;
6133;SDS011;3098;42.678;23.364;2024-01-30T08:58:38;6.72;;;3.58;;
6133;SDS011;3098;42.678;23.364;2024-01-30T09:01:10;8.23;;;3.40;;
6133;SDS011;3098;42.678;23.364;2024-01-30T09:03:44;5.55;;;3.13;;
6133;SDS011;3098;42.678;23.364;2024-01-30T09:06:12;12.05;;;3.45;;
6133;SDS011;3098;42.678;23.364;2024-01-30T09:08:42;6.95;;;3.10;;
6133;SDS011;3098;42.678;23.364;2024-01-30T09:11:11;6.85;;;3.55;;
6133;SDS011;3098;42.678;23.364;2024-01-30T09:13:43;10.43;;;4.05;;
6133;SDS011;3098;42.678;23.364;2024-01-30T09:16:20;7.43;;;3.58;;
6133;SDS011;3098;42.678;23.364;2024-01-30T09:18:54;8.68;;;4.45;;
6133;SDS011;3098;42.678;23.364;2024-01-30T09:21:22;11.27;;;4.80;;
6133;SDS011;3098;42.678;23.364;2024-01-30T09:23:53;6.10;;;3.97;;
6133;SDS011;3098;42.678;23.364;2024-01-30T09:26:32;6.65;;;3.75;;
6133;SDS011;3098;42.678;23.364;2024-01-30T09:29:01;6.82;;;3.30;;
6133;SDS011;3098;42.678;23.364;2024-01-30T09:31:34;6.75;;;3.22;;
6133;SDS011;3098;42.678;23.364;2024-01-30T09:34:08;7.93;;;3.42;;
6133;SDS011;3098;42.678;23.364;2024-01-30T09:36:41;6.13;;;3.13;;
6133;SDS011;3098;42.678;23.364;2024-01-30T09:39:11;5.93;;;3.35;;
6133;SDS011;3098;42.678;23.364;2024-01-30T09:41:45;5.03;;;2.67;;
6133;SDS011;3098;42.678;23.364;2024-01-30T09:44:20;8.18;;;3.08;;
6133;SDS011;3098;42.678;23.364;2024-01-30T09:46:59;4.18;;;2.65;;
6133;SDS011;3098;42.678;23.364;2024-01-30T09:49:35;5.95;;;3.03;;
6133;SDS011;3098;42.678;23.364;2024-01-30T09:52:15;5.88;;;2.90;;
6133;SDS011;3098;42.678;23.364;2024-01-30T09:54:48;5.82;;;3.30;;
6133;SDS011;3098;42.678;23.364;2024-01-30T09:57:27;7.63;;;3.20;;
6133;SDS011;3098;42.678;23.364;2024-01-30T10:00:10;6.25;;;3.20;;
6133;SDS011;3098;42.678;23.364;2024-01-30T10:02:57;4.88;;;2.90;;
6133;SDS011;3098;42.678;23.364;2024-01-30T10:05:32;7.05;;;3.28;;
6133;SDS011;3098;42.678;23.364;2024-01-30T10:08:05;7.72;;;3.15;;
6133;SDS011;3098;42.678;23.364;2024-01-30T10:10:36;5.50;;;3.03;;
6133;SDS011;3098;42.678;23.364;2024-01-30T10:13:04;5.28;;;3.15;;
6133;SDS011;3098;42.678;23.364;2024-01-30T10:15:34;6.35;;;3.08;;
6133;SDS011;3098;42.678;23.364;2024-01-30T10:18:11;6.82;;;3.33;;
6133;SDS011;3098;42.678;23.364;2024-01-30T10:20:39;6.32;;;3.13;;
6133;SDS011;3098;42.678;23.364;2024-01-30T10:23:43;8.48;;;4.30;;
6133;SDS011;3098;42.678;23.364;2024-01-30T10:26:13;5.53;;;2.70;;
6133;SDS011;3098;42.678;23.364;2024-01-30T10:28:44;3.47;;;2.50;;
6133;SDS011;3098;42.678;23.364;2024-01-30T10:31:16;6.28;;;2.72;;
6133;SDS011;3098;42.678;23.364;2024-01-30T10:33:45;5.97;;;3.00;;
6133;SDS011;3098;42.678;23.364;2024-01-30T10:36:14;6.15;;;2.97;;
6133;SDS011;3098;42.678;23.364;2024-01-30T10:38:46;4.38;;;2.67;;
6133;SDS011;3098;42.678;23.364;2024-01-30T10:41:18;4.00;;;2.45;;
6133;SDS011;3098;42.678;23.364;2024-01-30T10:43:50;7.97;;;3.00;;
6133;SDS011;3098;42.678;23.364;2024-01-30T10:46:30;5.57;;;2.58;;
6133;SDS011;3098;42.678;23.364;2024-01-30T10:48:59;3.80;;;2.22;;
6133;SDS011;3098;42.678;23.364;2024-01-30T10:51:28;8.23;;;3.20;;
6133;SDS011;3098;42.678;23.364;2024-01-30T10:53:57;5.15;;;2.90;;
6133;SDS011;3098;42.678;23.364;2024-01-30T10:56:27;8.70;;;3.15;;
6133;SDS011;3098;42.678;23.364;2024-01-30T10:58:58;8.10;;;3.20;;
6133;SDS011;3098;42.678;23.364;2024-01-30T11:01:27;4.70;;;2.45;;
6133;SDS011;3098;42.678;23.364;2024-01-30T11:03:57;6.00;;;3.20;;
6133;SDS011;3098;42.678;23.364;2024-01-30T11:06:28;6.65;;;3.33;;
6133;SDS011;3098;42.678;23.364;2024-01-30T11:09:04;9.70;;;2.90;;
6133;SDS011;3098;42.678;23.364;2024-01-30T11:11:47;6.68;;;2.90;;
6133;SDS011;3098;42.678;23.364;2024-01-30T11:14:25;10.85;;;2.97;;
6133;SDS011;3098;42.678;23.364;2024-01-30T11:16:56;5.93;;;2.60;;
6133;SDS011;3098;42.678;23.364;2024-01-30T11:19:30;5.53;;;2.83;;
6133;SDS011;3098;42.678;23.364;2024-01-30T11:21:59;6.85;;;2.85;;
6133;SDS011;3098;42.678;23.364;2024-01-30T11:24:36;6.20;;;3.08;;
6133;SDS011;3098;42.678;23.364;2024-01-30T11:27:10;4.93;;;2.88;;
6133;SDS011;3098;42.678;23.364;2024-01-30T11:29:42;5.80;;;2.50;;
6133;SDS011;3098;42.678;23.364;2024-01-30T11:32:22;8.02;;;2.85;;
6133;SDS011;3098;42.678;23.364;2024-01-30T11:34:52;4.93;;;2.78;;
6133;SDS011;3098;42.678;23.364;2024-01-30T11:37:21;5.45;;;2.97;;
6133;SDS011;3098;42.678;23.364;2024-01-30T11:39:54;5.60;;;2.83;;
6133;SDS011;3098;42.678;23.364;2024-01-30T11:42:23;7.05;;;3.47;;
6133;SDS011;3098;42.678;23.364;2024-01-30T11:44:54;5.35;;;2.67;;
6133;SDS011;3098;42.678;23.364;2024-01-30T11:47:23;3.85;;;2.60;;
6133;SDS011;3098;42.678;23.364;2024-01-30T11:49:54;2.75;;;1.73;;
6133;SDS011;3098;42.678;23.364;2024-01-30T11:52:23;3.92;;;2.08;;
6133;SDS011;3098;42.678;23.364;2024-01-30T11:54:56;9.90;;;2.70;;
6133;SDS011;3098;42.678;23.364;2024-01-30T11:57:26;7.55;;;3.03;;
6133;SDS011;3098;42.678;23.364;2024-01-30T11:59:55;10.18;;;3.15;;
6133;SDS011;3098;42.678;23.364;2024-01-30T12:02:26;4.95;;;2.45;;
6133;SDS011;3098;42.678;23.364;2024-01-30T12:04:54;9.73;;;3.60;;
6133;SDS011;3098;42.678;23.364;2024-01-30T12:07:22;6.30;;;2.63;;
6133;SDS011;3098;42.678;23.364;2024-01-30T12:09:56;6.35;;;2.50;;
6133;SDS011;3098;42.678;23.364;2024-01-30T12:12:24;3.92;;;2.45;;
6133;SDS011;3098;42.678;23.364;2024-01-30T12:14:53;5.70;;;2.70;;
6133;SDS011;3098;42.678;23.364;2024-01-30T12:17:25;4.55;;;2.70;;
6133;SDS011;3098;42.678;23.364;2024-01-30T12:20:05;5.38;;;2.80;;
6133;SDS011;3098;42.678;23.364;2024-01-30T12:22:37;9.57;;;3.05;;
6133;SDS011;3098;42.678;23.364;2024-01-30T12:25:14;3.67;;;2.30;;
6133;SDS011;3098;42.678;23.364;2024-01-30T12:27:46;5.25;;;2.88;;
6133;SDS011;3098;42.678;23.364;2024-01-30T12:30:20;8.98;;;3.25;;
6133;SDS011;3098;42.678;23.364;2024-01-30T12:32:49;7.32;;;3.50;;
6133;SDS011;3098;42.678;23.364;2024-01-30T12:35:19;6.65;;;3.60;;
6133;SDS011;3098;42.678;23.364;2024-01-30T12:37:48;5.40;;;3.28;;
6133;SDS011;3098;42.678;23.364;2024-01-30T12:40:19;5.78;;;3.42;;
6133;SDS011;3098;42.678;23.364;2024-01-30T12:42:54;11.65;;;3.25;;
6133;SDS011;3098;42.678;23.364;2024-01-30T12:45:23;8.45;;;3.85;;
6133;SDS011;3098;42.678;23.364;2024-01-30T12:47:52;6.07;;;3.25;;
6133;SDS011;3098;42.678;23.364;2024-01-30T12:50:20;4.28;;;2.33;;
6133;SDS011;3098;42.678;23.364;2024-01-30T12:52:56;6.35;;;3.05;;
6133;SDS011;3098;42.678;23.364;2024-01-30T12:55:29;7.40;;;3.53;;
6133;SDS011;3098;42.678;23.364;2024-01-30T12:57:57;5.82;;;2.72;;
6133;SDS011;3098;42.678;23.364;2024-01-30T13:00:27;6.45;;;3.30;;
6133;SDS011;3098;42.678;23.364;2024-01-30T13:03:01;8.68;;;3.58;;
6133;SDS011;3098;42.678;23.364;2024-01-30T13:05:31;4.35;;;2.80;;
6133;SDS011;3098;42.678;23.364;2024-01-30T13:08:01;6.78;;;3.28;;
6133;SDS011;3098;42.678;23.364;2024-01-30T13:10:32;15.07;;;4.05;;
6133;SDS011;3098;42.678;23.364;2024-01-30T13:12:59;7.22;;;3.83;;
6133;SDS011;3098;42.678;23.364;2024-01-30T13:15:27;3.47;;;2.40;;
6133;SDS011;3098;42.678;23.364;2024-01-30T13:17:56;13.43;;;3.10;;
6133;SDS011;3098;42.678;23.364;2024-01-30T13:20:25;5.57;;;2.70;;
6133;SDS011;3098;42.678;23.364;2024-01-30T13:22:54;10.87;;;4.13;;
6133;SDS011;3098;42.678;23.364;2024-01-30T13:25:25;6.70;;;3.10;;
6133;SDS011;3098;42.678;23.364;2024-01-30T13:27:55;9.17;;;3.00;;
6133;SDS011;3098;42.678;23.364;2024-01-30T13:30:25;7.30;;;3.03;;
6133;SDS011;3098;42.678;23.364;2024-01-30T13:32:53;5.17;;;2.57;;
6133;SDS011;3098;42.678;23.364;2024-01-30T13:35:20;9.37;;;4.20;;
6133;SDS011;3098;42.678;23.364;2024-01-30T13:37:50;8.63;;;2.97;;
6133;SDS011;3098;42.678;23.364;2024-01-30T13:40:21;6.43;;;3.17;;
6133;SDS011;3098;42.678;23.364;2024-01-30T13:42:49;7.53;;;3.60;;
6133;SDS011;3098;42.678;23.364;2024-01-30T13:45:18;16.53;;;4.03;;
6133;SDS011;3098;42.678;23.364;2024-01-30T13:47:46;6.90;;;3.43;;
6133;SDS011;3098;42.678;23.364;2024-01-30T13:50:14;9.60;;;3.63;;
6133;SDS011;3098;42.678;23.364;2024-01-30T13:52:45;8.80;;;3.80;;
6133;SDS011;3098;42.678;23.364;2024-01-30T13:55:14;8.83;;;4.17;;
6133;SDS011;3098;42.678;23.364;2024-01-30T13:57:45;6.20;;;3.03;;
6133;SDS011;3098;42.678;23.364;2024-01-30T14:00:13;9.77;;;3.93;;
6133;SDS011;3098;42.678;23.364;2024-01-30T14:02:48;7.63;;;3.90;;
6133;SDS011;3098;42.678;23.364;2024-01-30T14:05:17;8.27;;;2.33;;
6133;SDS011;3098;42.678;23.364;2024-01-30T14:07:47;9.70;;;3.83;;
6133;SDS011;3098;42.678;23.364;2024-01-30T14:10:15;7.97;;;3.93;;
6133;SDS011;3098;42.678;23.364;2024-01-30T14:12:46;8.97;;;4.40;;
6133;SDS011;3098;42.678;23.364;2024-01-30T14:15:16;7.57;;;3.77;;
6133;SDS011;3098;42.678;23.364;2024-01-30T14:20:20;14.47;;;4.50;;
6133;SDS011;3098;42.678;23.364;2024-01-30T14:22:50;8.97;;;4.17;;
6133;SDS011;3098;42.678;23.364;2024-01-30T14:25:20;16.13;;;4.50;;
6133;SDS011;3098;42.678;23.364;2024-01-30T14:27:52;8.40;;;4.17;;
6133;SDS011;3098;42.678;23.364;2024-01-30T14:30:26;7.83;;;4.47;;
6133;SDS011;3098;42.678;23.364;2024-01-30T14:32:55;7.90;;;4.33;;
6133;SDS011;3098;42.678;23.364;2024-01-30T14:35:25;9.27;;;4.23;;
6133;SDS011;3098;42.678;23.364;2024-01-30T14:37:56;7.57;;;3.77;;
6133;SDS011;3098;42.678;23.364;2024-01-30T14:40:24;10.53;;;4.33;;
6133;SDS011;3098;42.678;23.364;2024-01-30T14:42:52;20.37;;;5.37;;
6133;SDS011;3098;42.678;23.364;2024-01-30T14:45:24;12.93;;;4.60;;
6133;SDS011;3098;42.678;23.364;2024-01-30T14:47:57;11.77;;;4.83;;
6133;SDS011;3098;42.678;23.364;2024-01-30T14:50:28;13.43;;;5.77;;
6133;SDS011;3098;42.678;23.364;2024-01-30T14:52:56;13.17;;;5.50;;
6133;SDS011;3098;42.678;23.364;2024-01-30T14:55:25;11.83;;;5.23;;
6133;SDS011;3098;42.678;23.364;2024-01-30T14:57:55;14.97;;;5.80;;
6133;SDS011;3098;42.678;23.364;2024-01-30T15:00:30;6.10;;;3.53;;
6133;SDS011;3098;42.678;23.364;2024-01-30T15:03:09;7.90;;;3.70;;
6133;SDS011;3098;42.678;23.364;2024-01-30T15:05:44;13.20;;;3.90;;
6133;SDS011;3098;42.678;23.364;2024-01-30T15:08:16;10.33;;;4.50;;
6133;SDS011;3098;42.678;23.364;2024-01-30T15:10:46;8.63;;;4.37;;
6133;SDS011;3098;42.678;23.364;2024-01-30T15:13:22;5.73;;;3.50;;
6133;SDS011;3098;42.678;23.364;2024-01-30T15:15:54;12.23;;;4.57;;
6133;SDS011;3098;42.678;23.364;2024-01-30T15:18:29;9.10;;;3.87;;
6133;SDS011;3098;42.678;23.364;2024-01-30T15:21:25;8.73;;;4.07;;
6133;SDS011;3098;42.678;23.364;2024-01-30T15:24:00;14.23;;;4.90;;
6133;SDS011;3098;42.678;23.364;2024-01-30T15:26:35;26.27;;;9.43;;